Time;durP1;ratioP1;P1;durP2;ratioP2;P2;SDS_P1;SDS_P2;PMS_P1;PMS_P2;Temp;Humidity;BMP_temperature;BMP_pressure;BME280_temperature;BME280_humidity;BME280_pressure;Samples;Min_cycle;Max_cycle;Signal;HPM_P1;HPM_P2
2022/09/08 00:00:56;;;;;;;0.98;0.98;;;;;;;;;;5059828;28;20215;-69
2022/09/08 00:03:24;;;;;;;1.05;1.05;;;;;;;;;;5055709;28;20662;-69
2022/09/08 00:05:55;;;;;;;0.98;0.98;;;;;;;;;;5054294;28;20208;-69
2022/09/08 00:08:22;;;;;;;0.88;0.88;;;;;;;;;;5053972;28;20662;-69
2022/09/08 00:10:53;;;;;;;1.40;1.35;;;;;;;;;;5059498;28;20692;-69
2022/09/08 00:13:21;;;;;;;1.13;1.10;;;;;;;;;;5051033;28;20203;-69
2022/09/08 00:15:49;;;;;;;1.02;1.02;;;;;;;;;;5051059;28;20849;-67
2022/09/08 00:18:16;;;;;;;1.30;1.30;;;;;;;;;;5059176;28;20277;-68
2022/09/08 00:20:43;;;;;;;1.75;1.65;;;;;;;;;;5058806;28;20219;-69
2022/09/08 00:23:16;;;;;;;1.58;1.35;;;;;;;;;;5067315;28;20207;-69
2022/09/08 00:25:43;;;;;;;1.42;1.35;;;;;;;;;;5051651;28;20599;-69
2022/09/08 00:28:12;;;;;;;1.55;1.55;;;;;;;;;;5052018;28;20281;-69
2022/09/08 00:30:40;;;;;;;1.35;1.35;;;;;;;;;;5050344;28;20208;-69
2022/09/08 00:33:07;;;;;;;1.60;1.50;;;;;;;;;;5050200;28;20552;-69
2022/09/08 00:35:34;;;;;;;1.75;1.65;;;;;;;;;;5050120;28;20269;-68
2022/09/08 00:38:04;;;;;;;1.80;1.70;;;;;;;;;;5051591;28;20874;-69
2022/09/08 00:40:31;;;;;;;1.98;1.80;;;;;;;;;;5052819;28;20204;-68
2022/09/08 00:43:05;;;;;;;1.65;1.55;;;;;;;;;;5051945;28;20281;-69
2022/09/08 00:45:34;;;;;;;1.52;1.52;;;;;;;;;;5064758;28;20333;-68
2022/09/08 00:48:03;;;;;;;1.40;1.40;;;;;;;;;;5062461;28;20219;-68
2022/09/08 00:50:30;;;;;;;1.80;1.70;;;;;;;;;;5054335;28;20273;-69
2022/09/08 00:53:00;;;;;;;2.38;1.63;;;;;;;;;;5061735;28;20214;-69
2022/09/08 00:55:28;;;;;;;1.58;1.58;;;;;;;;;;5056248;28;20281;-68
2022/09/08 00:57:55;;;;;;;3.00;2.13;;;;;;;;;;5058127;28;20293;-69
2022/09/08 01:00:23;;;;;;;1.75;1.65;;;;;;;;;;5063931;28;20265;-68
2022/09/08 01:02:51;;;;;;;1.83;1.67;;;;;;;;;;5053495;28;20575;-69
2022/09/08 01:05:20;;;;;;;1.83;1.67;;;;;;;;;;5058555;28;20211;-69
2022/09/08 01:13:27;;;;;;;1.63;1.58;;;;;;;;;;5049719;28;20697;-69
2022/09/08 01:15:55;;;;;;;2.78;1.70;;;;;;;;;;5048944;28;20211;-68
2022/09/08 01:18:24;;;;;;;1.80;1.80;;;;;;;;;;5055907;28;20223;-69
2022/09/08 01:20:54;;;;;;;1.83;1.75;;;;;;;;;;5066179;28;20629;-69
2022/09/08 01:23:43;;;;;;;1.27;1.27;;;;;;;;;;5052945;28;20289;-70
2022/09/08 01:26:24;;;;;;;2.05;1.95;;;;;;;;;;5030787;28;20681;-69
2022/09/08 01:28:55;;;;;;;1.70;1.60;;;;;;;;;;5054197;28;20223;-69
2022/09/08 01:31:23;;;;;;;1.35;1.35;;;;;;;;;;5065852;28;20207;-69
2022/09/08 01:33:50;;;;;;;1.15;1.15;;;;;;;;;;5064000;28;20579;-69
2022/09/08 01:36:18;;;;;;;1.50;1.50;;;;;;;;;;5056837;28;20211;-68
2022/09/08 01:38:45;;;;;;;1.50;1.50;;;;;;;;;;5066542;28;20290;-69
2022/09/08 01:41:13;;;;;;;1.60;1.60;;;;;;;;;;5064979;28;20202;-69
2022/09/08 01:43:40;;;;;;;2.83;1.67;;;;;;;;;;5059392;28;20294;-69
2022/09/08 01:46:09;;;;;;;1.58;1.40;;;;;;;;;;5054766;28;20226;-70
2022/09/08 01:48:36;;;;;;;2.80;1.65;;;;;;;;;;5066597;28;20705;-71
2022/09/08 01:51:05;;;;;;;1.98;1.88;;;;;;;;;;5055013;28;20195;-69
2022/09/08 01:53:32;;;;;;;3.90;1.67;;;;;;;;;;5054421;28;21818;-70
2022/09/08 01:55:59;;;;;;;1.42;1.42;;;;;;;;;;5053628;28;20207;-69
2022/09/08 01:58:26;;;;;;;1.73;1.55;;;;;;;;;;5063627;28;20199;-69
2022/09/08 02:00:54;;;;;;;1.60;1.58;;;;;;;;;;5052493;28;20207;-70
2022/09/08 02:03:22;;;;;;;1.70;1.70;;;;;;;;;;5048716;28;20253;-70
2022/09/08 02:05:49;;;;;;;2.00;1.90;;;;;;;;;;5046576;28;20219;-69
2022/09/08 02:08:16;;;;;;;2.85;1.80;;;;;;;;;;5067586;28;20775;-70
2022/09/08 02:10:43;;;;;;;1.25;1.25;;;;;;;;;;5048798;28;20632;-70
2022/09/08 02:13:10;;;;;;;2.80;1.50;;;;;;;;;;5048755;28;20208;-71
2022/09/08 02:15:37;;;;;;;3.08;1.63;;;;;;;;;;5046522;28;20932;-70
2022/09/08 02:18:04;;;;;;;2.28;1.88;;;;;;;;;;5058573;28;20239;-71
2022/09/08 02:20:33;;;;;;;1.48;1.48;;;;;;;;;;5065741;28;20203;-71
2022/09/08 02:23:00;;;;;;;1.75;1.70;;;;;;;;;;5056376;28;20254;-71
2022/09/08 02:25:27;;;;;;;1.70;1.60;;;;;;;;;;5047433;28;20265;-71
2022/09/08 02:27:54;;;;;;;1.40;1.35;;;;;;;;;;5060804;28;20594;-70
2022/09/08 02:30:22;;;;;;;1.98;1.88;;;;;;;;;;5058794;28;20227;-71
2022/09/08 02:32:49;;;;;;;1.70;1.60;;;;;;;;;;5053667;28;20208;-70
2022/09/08 02:35:16;;;;;;;1.80;1.70;;;;;;;;;;5047883;28;20652;-71
2022/09/08 02:37:44;;;;;;;4.13;1.67;;;;;;;;;;5047832;28;20549;-70
2022/09/08 02:40:12;;;;;;;1.77;1.73;;;;;;;;;;5047741;28;20223;-70
2022/09/08 02:42:39;;;;;;;1.80;1.70;;;;;;;;;;5047456;28;20223;-70
2022/09/08 02:45:08;;;;;;;3.70;1.90;;;;;;;;;;5060323;28;20264;-70
2022/09/08 02:47:35;;;;;;;1.55;1.55;;;;;;;;;;5065198;28;20685;-71
2022/09/08 02:50:02;;;;;;;1.80;1.60;;;;;;;;;;5063947;28;20222;-70
2022/09/08 02:52:31;;;;;;;1.75;1.63;;;;;;;;;;5050292;28;20262;-72
2022/09/08 02:55:00;;;;;;;2.88;1.80;;;;;;;;;;5052277;28;20741;-70
2022/09/08 02:57:27;;;;;;;1.70;1.70;;;;;;;;;;5056566;28;20261;-71
2022/09/08 02:59:54;;;;;;;1.98;1.85;;;;;;;;;;5058690;28;20661;-71
2022/09/08 03:02:21;;;;;;;1.50;1.50;;;;;;;;;;5048386;28;20233;-70
2022/09/08 03:04:49;;;;;;;1.58;1.48;;;;;;;;;;5048305;28;20743;-71
2022/09/08 03:07:17;;;;;;;4.70;1.80;;;;;;;;;;5048345;28;20204;-71
2022/09/08 03:09:44;;;;;;;2.17;1.83;;;;;;;;;;5047704;28;20595;-70
2022/09/08 03:12:13;;;;;;;1.95;1.80;;;;;;;;;;5047812;28;20258;-70
2022/09/08 03:14:40;;;;;;;1.55;1.45;;;;;;;;;;5048150;28;20296;-69
2022/09/08 03:17:07;;;;;;;2.15;2.03;;;;;;;;;;5048047;28;20276;-69
2022/09/08 03:19:34;;;;;;;1.70;1.60;;;;;;;;;;5048590;28;20253;-70
2022/09/08 03:22:01;;;;;;;1.55;1.55;;;;;;;;;;5049215;28;20615;-70
2022/09/08 03:24:28;;;;;;;3.90;1.83;;;;;;;;;;5049894;28;20231;-68
2022/09/08 03:26:55;;;;;;;2.22;2.10;;;;;;;;;;5063740;28;20610;-69
2022/09/08 03:29:23;;;;;;;2.08;1.92;;;;;;;;;;5059842;28;20233;-68
2022/09/08 03:31:50;;;;;;;1.88;1.77;;;;;;;;;;5047905;28;20646;-68
2022/09/08 03:34:17;;;;;;;2.17;2.03;;;;;;;;;;5048485;28;20204;-69
2022/09/08 03:36:44;;;;;;;2.08;1.98;;;;;;;;;;5048244;28;20208;-69
2022/09/08 03:39:11;;;;;;;2.75;2.00;;;;;;;;;;5047680;28;20195;-70
2022/09/08 03:41:38;;;;;;;3.13;1.90;;;;;;;;;;5047453;28;20277;-69
2022/09/08 03:44:06;;;;;;;1.65;1.60;;;;;;;;;;5049342;28;20235;-70
2022/09/08 03:46:34;;;;;;;2.42;2.33;;;;;;;;;;5056395;28;20203;-69
2022/09/08 03:49:01;;;;;;;2.50;2.30;;;;;;;;;;5048022;28;20200;-69
2022/09/08 03:51:28;;;;;;;1.60;1.58;;;;;;;;;;5066822;28;20340;-70
2022/09/08 03:54:46;;;;;;;2.10;1.90;;;;;;;;;;5064200;28;20207;-69
2022/09/08 03:56:45;;;;;;;2.13;2.03;;;;;;;;;;5066268;28;20208;-69
2022/09/08 03:59:12;;;;;;;1.60;1.52;;;;;;;;;;5048119;28;20606;-69
2022/09/08 04:01:41;;;;;;;1.30;1.30;;;;;;;;;;5046975;28;20207;-69
2022/09/08 04:04:08;;;;;;;1.90;1.88;;;;;;;;;;5055687;28;20654;-69
2022/09/08 04:06:35;;;;;;;3.08;2.30;;;;;;;;;;5054222;28;20979;-69
2022/09/08 04:09:02;;;;;;;2.08;1.98;;;;;;;;;;5048402;28;20199;-69
2022/09/08 04:11:29;;;;;;;1.63;1.60;;;;;;;;;;5058412;28;20309;-69
2022/09/08 04:13:56;;;;;;;2.10;1.90;;;;;;;;;;5052829;28;20677;-69
2022/09/08 04:16:23;;;;;;;1.90;1.90;;;;;;;;;;5054882;28;20204;-69
2022/09/08 04:18:52;;;;;;;1.60;1.60;;;;;;;;;;5065926;28;20227;-69
2022/09/08 04:21:19;;;;;;;2.08;1.92;;;;;;;;;;5061105;28;20294;-69
2022/09/08 04:23:46;;;;;;;2.13;1.90;;;;;;;;;;5051716;28;20706;-69
2022/09/08 04:26:14;;;;;;;2.80;1.70;;;;;;;;;;5054321;28;20203;-69
2022/09/08 04:28:42;;;;;;;1.92;1.80;;;;;;;;;;5066458;28;20264;-69
2022/09/08 04:31:12;;;;;;;3.70;1.70;;;;;;;;;;5058749;28;20228;-69
2022/09/08 04:33:40;;;;;;;1.48;1.40;;;;;;;;;;5060541;28;20289;-69
2022/09/08 04:36:09;;;;;;;2.50;2.35;;;;;;;;;;5066696;28;20280;-68
2022/09/08 04:38:36;;;;;;;2.03;1.92;;;;;;;;;;5050066;28;20222;-69
2022/09/08 04:41:06;;;;;;;1.95;1.85;;;;;;;;;;5049675;28;20208;-69
2022/09/08 04:43:33;;;;;;;4.35;2.20;;;;;;;;;;5050222;28;20682;-69
2022/09/08 04:46:02;;;;;;;2.08;1.80;;;;;;;;;;5052127;28;20218;-69
2022/09/08 04:48:30;;;;;;;2.00;2.00;;;;;;;;;;5059294;28;20265;-69
2022/09/08 04:50:57;;;;;;;2.03;1.92;;;;;;;;;;5058661;28;20232;-69
2022/09/08 04:53:25;;;;;;;1.90;1.80;;;;;;;;;;5055963;28;20219;-69
2022/09/08 04:55:53;;;;;;;5.80;1.80;;;;;;;;;;5053617;28;20207;-69
2022/09/08 04:58:20;;;;;;;4.85;1.83;;;;;;;;;;5065619;28;20238;-70
2022/09/08 05:00:47;;;;;;;1.60;1.58;;;;;;;;;;5065013;28;20290;-69
2022/09/08 05:03:14;;;;;;;2.63;1.40;;;;;;;;;;5057683;28;20203;-70
2022/09/08 05:05:41;;;;;;;1.75;1.65;;;;;;;;;;5064694;28;20523;-70
2022/09/08 05:08:09;;;;;;;1.63;1.52;;;;;;;;;;5058948;28;20218;-70
2022/09/08 05:10:37;;;;;;;1.98;1.80;;;;;;;;;;5057319;28;20276;-70
2022/09/08 05:13:04;;;;;;;1.70;1.60;;;;;;;;;;5052542;28;20669;-70
2022/09/08 05:15:31;;;;;;;1.58;1.48;;;;;;;;;;5057380;28;20212;-70
2022/09/08 05:17:58;;;;;;;2.63;2.05;;;;;;;;;;5055627;28;20219;-70
2022/09/08 05:20:25;;;;;;;1.60;1.58;;;;;;;;;;5068870;28;20210;-70
2022/09/08 05:22:52;;;;;;;2.58;1.80;;;;;;;;;;5052802;28;20249;-69
2022/09/08 05:25:19;;;;;;;3.78;1.88;;;;;;;;;;5069469;28;20676;-76
2022/09/08 05:27:49;;;;;;;1.92;1.75;;;;;;;;;;5068974;28;20196;-74
2022/09/08 05:30:16;;;;;;;2.53;2.28;;;;;;;;;;5052500;28;20219;-71
2022/09/08 05:32:43;;;;;;;1.95;1.85;;;;;;;;;;5052575;28;20277;-70
2022/09/08 05:35:10;;;;;;;1.90;1.80;;;;;;;;;;5050986;28;20215;-70
2022/09/08 05:37:37;;;;;;;1.70;1.67;;;;;;;;;;5058395;28;20211;-70
2022/09/08 05:40:05;;;;;;;5.95;2.63;;;;;;;;;;5056020;28;20207;-71
2022/09/08 05:42:32;;;;;;;2.60;2.40;;;;;;;;;;5059485;28;20212;-70
2022/09/08 05:45:00;;;;;;;2.45;1.90;;;;;;;;;;5059510;28;20266;-70
2022/09/08 05:47:27;;;;;;;3.13;1.92;;;;;;;;;;5060370;28;20203;-71
2022/09/08 05:49:54;;;;;;;6.43;3.28;;;;;;;;;;5050113;28;20234;-68
2022/09/08 05:52:21;;;;;;;1.70;1.70;;;;;;;;;;5057065;28;20264;-68
2022/09/08 05:54:48;;;;;;;4.53;1.75;;;;;;;;;;5069304;28;20665;-68
2022/09/08 05:57:15;;;;;;;3.63;1.90;;;;;;;;;;5069893;28;20211;-69
2022/09/08 05:59:43;;;;;;;5.40;1.83;;;;;;;;;;5070032;28;20670;-69
2022/09/08 06:02:11;;;;;;;1.65;1.60;;;;;;;;;;5069650;28;20249;-69
2022/09/08 06:04:38;;;;;;;3.72;2.13;;;;;;;;;;5062141;28;20203;-69
2022/09/08 06:07:05;;;;;;;1.63;1.52;;;;;;;;;;5059733;28;20215;-70
2022/09/08 06:09:32;;;;;;;2.15;1.67;;;;;;;;;;5056842;28;20200;-61
2022/09/08 06:11:59;;;;;;;1.30;1.30;;;;;;;;;;5049990;28;20211;-61
2022/09/08 06:14:27;;;;;;;1.75;1.40;;;;;;;;;;5064518;28;20203;-62
2022/09/08 06:16:54;;;;;;;1.45;1.35;;;;;;;;;;5068702;28;20210;-62
2022/09/08 06:19:22;;;;;;;1.27;1.27;;;;;;;;;;5058041;28;20226;-62
2022/09/08 06:21:49;;;;;;;1.67;1.23;;;;;;;;;;5047902;28;20208;-61
2022/09/08 06:24:16;;;;;;;1.38;1.13;;;;;;;;;;5050933;28;20232;-61
2022/09/08 06:27:00;;;;;;;1.30;1.10;;;;;;;;;;5054549;28;20215;-61
2022/09/08 06:29:34;;;;;;;1.70;1.17;;;;;;;;;;5062310;28;20206;-61
2022/09/08 06:32:03;;;;;;;1.52;0.90;;;;;;;;;;5063913;28;20223;-62
2022/09/08 06:34:36;;;;;;;1.13;1.13;;;;;;;;;;5048544;28;20217;-62
2022/09/08 06:37:05;;;;;;;1.23;1.17;;;;;;;;;;5049016;28;20204;-62
2022/09/08 06:39:34;;;;;;;1.98;1.20;;;;;;;;;;5064254;28;20202;-62
2022/09/08 06:42:04;;;;;;;0.90;0.90;;;;;;;;;;5061871;28;20202;-62
2022/09/08 06:44:33;;;;;;;1.27;1.20;;;;;;;;;;5049231;28;20234;-62
2022/09/08 06:47:00;;;;;;;0.90;0.90;;;;;;;;;;5063360;28;20206;-62
2022/09/08 06:49:28;;;;;;;1.45;1.38;;;;;;;;;;5069133;28;20210;-62
2022/09/08 06:52:00;;;;;;;1.13;1.13;;;;;;;;;;5052371;28;20309;-61
2022/09/08 06:54:40;;;;;;;1.42;1.42;;;;;;;;;;5048957;28;20211;-62
2022/09/08 06:57:11;;;;;;;0.80;0.80;;;;;;;;;;5048720;28;20208;-61
2022/09/08 06:59:43;;;;;;;1.45;1.15;;;;;;;;;;5055489;28;20203;-61
2022/09/08 07:02:21;;;;;;;1.08;1.08;;;;;;;;;;5052603;28;20257;-67
2022/09/08 07:04:53;;;;;;;1.08;1.08;;;;;;;;;;5063343;28;20206;-67
2022/09/08 07:07:25;;;;;;;0.95;0.90;;;;;;;;;;5052394;28;20647;-68
2022/09/08 07:09:56;;;;;;;0.90;0.90;;;;;;;;;;5040751;28;20243;-67
2022/09/08 07:12:32;;;;;;;1.08;1.08;;;;;;;;;;4991254;28;20697;-67
2022/09/08 07:15:14;;;;;;;2.60;1.13;;;;;;;;;;5003727;28;20273;-67
2022/09/08 07:17:42;;;;;;;1.05;0.98;;;;;;;;;;5005671;28;20240;-68
2022/09/08 07:20:10;;;;;;;4.38;0.90;;;;;;;;;;5025921;28;20212;-70
2022/09/08 07:22:42;;;;;;;2.95;1.20;;;;;;;;;;5018025;28;20207;-69
2022/09/08 07:25:20;;;;;;;2.53;1.10;;;;;;;;;;5022265;28;20294;-70
2022/09/08 07:27:50;;;;;;;1.17;1.00;;;;;;;;;;5025228;28;20204;-69
2022/09/08 07:30:18;;;;;;;1.10;0.90;;;;;;;;;;5007796;28;20232;-70
2022/09/08 07:32:47;;;;;;;1.67;0.90;;;;;;;;;;5008163;28;20220;-70
2022/09/08 07:35:21;;;;;;;3.28;0.90;;;;;;;;;;5007769;28;20279;-70
2022/09/08 07:37:51;;;;;;;0.75;0.75;;;;;;;;;;5012632;28;20714;-70
2022/09/08 07:40:19;;;;;;;0.90;0.90;;;;;;;;;;5009817;28;20247;-70
2022/09/08 07:42:49;;;;;;;1.10;0.50;;;;;;;;;;5008106;28;20303;-71
2022/09/08 07:45:16;;;;;;;1.55;0.60;;;;;;;;;;5013810;28;20758;-69
2022/09/08 07:47:46;;;;;;;0.70;0.70;;;;;;;;;;5019864;28;20262;-70
2022/09/08 07:50:18;;;;;;;0.68;0.68;;;;;;;;;;5014049;28;20217;-70
2022/09/08 07:52:51;;;;;;;0.60;0.60;;;;;;;;;;5021105;28;20355;-70
2022/09/08 07:55:23;;;;;;;0.50;0.50;;;;;;;;;;5027166;28;20614;-70
2022/09/08 07:57:55;;;;;;;0.47;0.47;;;;;;;;;;5025567;28;20274;-70
2022/09/08 08:00:24;;;;;;;0.50;0.50;;;;;;;;;;5019170;28;20537;-70
2022/09/08 08:03:09;;;;;;;0.40;0.40;;;;;;;;;;5012511;28;20213;-70
2022/09/08 08:05:41;;;;;;;0.43;0.43;;;;;;;;;;5013465;28;20205;-68
2022/09/08 08:08:13;;;;;;;0.50;0.50;;;;;;;;;;5023736;28;20204;-67
2022/09/08 08:10:46;;;;;;;0.90;0.40;;;;;;;;;;5011747;28;20240;-69
2022/09/08 08:13:18;;;;;;;0.73;0.55;;;;;;;;;;5012171;28;20316;-69
2022/09/08 08:15:46;;;;;;;0.47;0.47;;;;;;;;;;5018378;28;20212;-68
2022/09/08 08:18:15;;;;;;;1.95;0.43;;;;;;;;;;5031393;28;20237;-67
2022/09/08 08:20:49;;;;;;;0.30;0.30;;;;;;;;;;5029956;28;20569;-68
2022/09/08 08:23:22;;;;;;;0.40;0.40;;;;;;;;;;5014312;28;20233;-69
2022/09/08 08:25:55;;;;;;;0.38;0.38;;;;;;;;;;5011818;28;20226;-69
2022/09/08 08:28:23;;;;;;;0.40;0.40;;;;;;;;;;5028746;28;20205;-69
2022/09/08 08:30:54;;;;;;;1.60;0.43;;;;;;;;;;5031790;28;20236;-70
2022/09/08 08:33:25;;;;;;;0.63;0.63;;;;;;;;;;5014735;28;20201;-70
2022/09/08 08:35:54;;;;;;;0.40;0.40;;;;;;;;;;5018386;28;20204;-69
2022/09/08 08:38:22;;;;;;;0.50;0.40;;;;;;;;;;5015671;28;20223;-69
2022/09/08 08:40:56;;;;;;;0.63;0.40;;;;;;;;;;5011917;28;20213;-69
2022/09/08 08:43:40;;;;;;;2.10;0.57;;;;;;;;;;5011807;28;20503;-68
2022/09/08 08:46:15;;;;;;;0.40;0.40;;;;;;;;;;5016414;28;20220;-70
2022/09/08 08:48:51;;;;;;;0.63;0.45;;;;;;;;;;5011198;28;20289;-70
2022/09/08 08:51:24;;;;;;;0.25;0.25;;;;;;;;;;5011675;28;20224;-69
2022/09/08 08:54:10;;;;;;;0.20;0.20;;;;;;;;;;5025161;28;20258;-69
2022/09/08 08:56:42;;;;;;;0.30;0.30;;;;;;;;;;5010514;28;20530;-69
2022/09/08 08:59:25;;;;;;;0.35;0.30;;;;;;;;;;5012101;28;20216;-69
2022/09/08 09:01:57;;;;;;;0.38;0.38;;;;;;;;;;4990097;28;20651;-68
2022/09/08 09:04:40;;;;;;;0.47;0.40;;;;;;;;;;5026642;28;20633;-69
2022/09/08 09:07:17;;;;;;;0.22;0.22;;;;;;;;;;5013182;28;20213;-69
2022/09/08 09:10:00;;;;;;;0.32;0.32;;;;;;;;;;5009676;28;20310;-68
2022/09/08 09:12:48;;;;;;;0.30;0.30;;;;;;;;;;5010690;28;20261;-68
2022/09/08 09:15:26;;;;;;;0.30;0.30;;;;;;;;;;5011193;28;20205;-67
2022/09/08 09:18:11;;;;;;;1.23;0.28;;;;;;;;;;5010987;28;20229;-68
2022/09/08 09:20:51;;;;;;;0.30;0.30;;;;;;;;;;5011004;28;20201;-68
2022/09/08 09:23:27;;;;;;;2.20;0.30;;;;;;;;;;5010842;28;20808;-69
2022/09/08 09:25:58;;;;;;;0.95;0.30;;;;;;;;;;5009005;28;20362;-68
2022/09/08 09:28:35;;;;;;;0.20;0.20;;;;;;;;;;5007876;28;20213;-69
2022/09/08 09:31:12;;;;;;;0.63;0.40;;;;;;;;;;5009909;28;20649;-69
2022/09/08 09:33:48;;;;;;;0.28;0.28;;;;;;;;;;5010034;28;20219;-69
2022/09/08 09:36:22;;;;;;;0.25;0.25;;;;;;;;;;5009949;28;20300;-67
2022/09/08 09:39:02;;;;;;;0.28;0.28;;;;;;;;;;5009451;28;20217;-67
2022/09/08 09:41:43;;;;;;;0.20;0.20;;;;;;;;;;5009507;28;20208;-67
2022/09/08 09:44:27;;;;;;;0.32;0.32;;;;;;;;;;5009956;28;20594;-67
2022/09/08 09:47:04;;;;;;;0.57;0.30;;;;;;;;;;5009315;28;20219;-68
2022/09/08 09:49:38;;;;;;;0.95;0.57;;;;;;;;;;5010004;28;20212;-67
2022/09/08 09:52:11;;;;;;;0.30;0.30;;;;;;;;;;5009582;28;20286;-67
2022/09/08 09:54:44;;;;;;;0.22;0.22;;;;;;;;;;5009182;28;20283;-67
2022/09/08 09:57:26;;;;;;;0.30;0.30;;;;;;;;;;5009332;28;20216;-66
2022/09/08 10:00:04;;;;;;;0.30;0.30;;;;;;;;;;5009454;28;20648;-66
2022/09/08 10:02:46;;;;;;;1.45;0.40;;;;;;;;;;5009513;28;20211;-66
2022/09/08 10:05:25;;;;;;;0.57;0.30;;;;;;;;;;5009980;28;20213;-67
2022/09/08 10:08:18;;;;;;;0.88;0.20;;;;;;;;;;5009278;28;20213;-66
2022/09/08 10:10:53;;;;;;;0.20;0.20;;;;;;;;;;5009876;28;20279;-67
2022/09/08 10:13:55;;;;;;;0.10;0.10;;;;;;;;;;5010026;28;20247;-67
2022/09/08 10:16:34;;;;;;;0.15;0.15;;;;;;;;;;5009948;28;20220;-67
2022/09/08 10:19:22;;;;;;;1.35;0.20;;;;;;;;;;5009723;28;20653;-67
2022/09/08 10:22:03;;;;;;;0.20;0.20;;;;;;;;;;4984864;28;20654;-67
2022/09/08 10:24:44;;;;;;;0.15;0.15;;;;;;;;;;5009378;28;20927;-66
2022/09/08 10:27:26;;;;;;;0.10;0.10;;;;;;;;;;5009515;28;20209;-67
2022/09/08 10:30:04;;;;;;;0.57;0.25;;;;;;;;;;5009243;28;20255;-67
2022/09/08 10:32:42;;;;;;;0.20;0.20;;;;;;;;;;5008981;28;20319;-68
2022/09/08 10:35:21;;;;;;;0.10;0.10;;;;;;;;;;5009282;28;20220;-67
2022/09/08 10:38:01;;;;;;;0.35;0.20;;;;;;;;;;5009022;28;20243;-67
2022/09/08 10:40:37;;;;;;;0.10;0.10;;;;;;;;;;5010585;28;20204;-67
2022/09/08 10:43:17;;;;;;;0.45;0.35;;;;;;;;;;5009312;28;20212;-67
2022/09/08 10:45:53;;;;;;;1.40;0.20;;;;;;;;;;5010166;28;20224;-66
2022/09/08 10:48:39;;;;;;;0.10;0.10;;;;;;;;;;5008944;28;20216;-66
2022/09/08 10:51:15;;;;;;;0.20;0.20;;;;;;;;;;5018086;28;20517;-67
2022/09/08 10:53:52;;;;;;;0.20;0.20;;;;;;;;;;5016134;28;20251;-66
2022/09/08 10:56:22;;;;;;;0.25;0.15;;;;;;;;;;5011008;28;20212;-65
2022/09/08 10:59:05;;;;;;;0.20;0.20;;;;;;;;;;5008940;28;20312;-66
2022/09/08 11:01:42;;;;;;;3.20;0.20;;;;;;;;;;5008837;28;20424;-67
2022/09/08 11:04:23;;;;;;;8.85;3.47;;;;;;;;;;5028512;28;20204;-66
2022/09/08 11:07:01;;;;;;;18.88;4.22;;;;;;;;;;5027146;28;20733;-65
2022/09/08 11:09:39;;;;;;;2.83;1.45;;;;;;;;;;5008035;28;20371;-64
2022/09/08 11:12:27;;;;;;;1.02;0.60;;;;;;;;;;5009142;28;20220;-65
2022/09/08 11:15:09;;;;;;;0.47;0.35;;;;;;;;;;5008172;28;20267;-65
2022/09/08 11:17:43;;;;;;;0.25;0.25;;;;;;;;;;5008289;28;20227;-65
2022/09/08 11:20:12;;;;;;;0.20;0.20;;;;;;;;;;5009479;28;20978;-64
2022/09/08 11:22:51;;;;;;;14.10;5.72;;;;;;;;;;5014103;28;20200;-65
2022/09/08 11:25:42;;;;;;;18.08;9.40;;;;;;;;;;5024467;28;20899;-66
2022/09/08 11:28:15;;;;;;;4.03;2.10;;;;;;;;;;5002997;28;20230;-65
2022/09/08 11:30:48;;;;;;;1.58;1.23;;;;;;;;;;5023681;28;20208;-64
2022/09/08 11:33:20;;;;;;;0.63;0.63;;;;;;;;;;5024506;28;20232;-66
2022/09/08 11:35:59;;;;;;;1.58;0.30;;;;;;;;;;5012343;28;20260;-65
2022/09/08 11:38:30;;;;;;;0.35;0.35;;;;;;;;;;5026431;28;20196;-65
2022/09/08 11:41:12;;;;;;;0.73;0.40;;;;;;;;;;5022401;28;20287;-65
2022/09/08 11:43:49;;;;;;;0.35;0.35;;;;;;;;;;5028966;28;20231;-66
2022/09/08 11:46:25;;;;;;;1.05;0.40;;;;;;;;;;5022123;28;20211;-65
2022/09/08 11:49:17;;;;;;;0.95;0.40;;;;;;;;;;5016960;28;20208;-66
2022/09/08 11:51:54;;;;;;;0.32;0.30;;;;;;;;;;5011514;28;20229;-66
2022/09/08 11:54:27;;;;;;;0.28;0.28;;;;;;;;;;5026236;28;20212;-67
2022/09/08 11:57:06;;;;;;;0.32;0.20;;;;;;;;;;5011413;28;20564;-66
2022/09/08 11:59:44;;;;;;;0.30;0.30;;;;;;;;;;5013290;28;20213;-66
2022/09/08 12:02:20;;;;;;;0.55;0.40;;;;;;;;;;5011608;28;20633;-66
2022/09/08 12:04:57;;;;;;;0.30;0.30;;;;;;;;;;5021352;28;20265;-67
2022/09/08 12:07:37;;;;;;;0.40;0.40;;;;;;;;;;5010236;28;20224;-66
2022/09/08 12:10:13;;;;;;;0.30;0.30;;;;;;;;;;5011000;28;20659;-66
2022/09/08 12:12:51;;;;;;;0.20;0.20;;;;;;;;;;5020219;28;20227;-66
2022/09/08 12:15:36;;;;;;;0.20;0.20;;;;;;;;;;5012872;28;20573;-75
2022/09/08 12:18:08;;;;;;;0.20;0.20;;;;;;;;;;5026064;28;20237;-64
2022/09/08 12:20:45;;;;;;;0.32;0.20;;;;;;;;;;5014703;28;20318;-65
2022/09/08 12:23:24;;;;;;;0.20;0.20;;;;;;;;;;5011322;28;20209;-66
2022/09/08 12:26:04;;;;;;;0.20;0.20;;;;;;;;;;5014550;28;20258;-65
2022/09/08 12:28:49;;;;;;;0.20;0.20;;;;;;;;;;5012999;28;20679;-66
2022/09/08 12:31:24;;;;;;;0.20;0.20;;;;;;;;;;5010794;28;20212;-65
2022/09/08 12:34:04;;;;;;;0.30;0.20;;;;;;;;;;5011513;28;20229;-67
2022/09/08 12:36:37;;;;;;;0.20;0.20;;;;;;;;;;5028168;28;20204;-66
2022/09/08 12:39:11;;;;;;;0.17;0.17;;;;;;;;;;5025864;28;20197;-65
2022/09/08 12:42:01;;;;;;;0.20;0.20;;;;;;;;;;5011075;28;20247;-66
2022/09/08 12:44:39;;;;;;;1.42;0.30;;;;;;;;;;5009851;28;20213;-65
2022/09/08 12:47:14;;;;;;;0.40;0.30;;;;;;;;;;5010650;28;20745;-66
2022/09/08 12:49:55;;;;;;;0.30;0.20;;;;;;;;;;5010726;28;20267;-67
2022/09/08 12:52:31;;;;;;;0.30;0.30;;;;;;;;;;5010808;28;20244;-66
2022/09/08 12:55:02;;;;;;;1.00;0.20;;;;;;;;;;5011042;28;20217;-66
2022/09/08 12:57:36;;;;;;;1.30;0.30;;;;;;;;;;5010800;28;20224;-65
2022/09/08 13:00:07;;;;;;;1.02;0.30;;;;;;;;;;5010799;28;20827;-65
2022/09/08 13:02:52;;;;;;;0.30;0.30;;;;;;;;;;5010717;28;20201;-66
2022/09/08 13:05:29;;;;;;;0.20;0.20;;;;;;;;;;5010706;28;20588;-66
2022/09/08 13:08:00;;;;;;;0.22;0.17;;;;;;;;;;5010710;28;20216;-66
2022/09/08 13:10:30;;;;;;;0.20;0.20;;;;;;;;;;5010657;28;20219;-66
2022/09/08 13:13:11;;;;;;;0.50;0.20;;;;;;;;;;5010626;28;20244;-66
2022/09/08 13:15:45;;;;;;;0.30;0.30;;;;;;;;;;5010690;28;20216;-67
2022/09/08 13:18:22;;;;;;;0.20;0.20;;;;;;;;;;5008520;28;20235;-66
2022/09/08 13:20:53;;;;;;;0.30;0.30;;;;;;;;;;5009496;28;20737;-66
2022/09/08 13:23:34;;;;;;;0.65;0.30;;;;;;;;;;5009622;28;20336;-70
2022/09/08 13:26:07;;;;;;;0.28;0.28;;;;;;;;;;5007641;28;20344;-67
2022/09/08 13:28:39;;;;;;;0.22;0.22;;;;;;;;;;5009883;28;20228;-67
2022/09/08 13:31:14;;;;;;;0.10;0.10;;;;;;;;;;5023550;28;20205;-67
2022/09/08 13:33:48;;;;;;;0.28;0.28;;;;;;;;;;5016489;28;20836;-66
2022/09/08 13:36:23;;;;;;;0.88;0.20;;;;;;;;;;5014997;28;20200;-66
2022/09/08 13:39:20;;;;;;;0.20;0.17;;;;;;;;;;5019124;28;20204;-68
2022/09/08 13:41:52;;;;;;;0.30;0.30;;;;;;;;;;4967144;28;20218;-67
2022/09/08 13:44:37;;;;;;;1.13;0.30;;;;;;;;;;5019686;28;20236;-65
2022/09/08 13:47:15;;;;;;;0.93;0.20;;;;;;;;;;5020087;28;20205;-67
2022/09/08 13:49:49;;;;;;;0.80;0.30;;;;;;;;;;5009711;28;20259;-69
2022/09/08 13:52:26;;;;;;;0.43;0.35;;;;;;;;;;5013596;28;20756;-65
2022/09/08 13:55:02;;;;;;;1.10;0.20;;;;;;;;;;5009448;28;20200;-71
2022/09/08 13:57:53;;;;;;;0.85;0.20;;;;;;;;;;5009129;28;20208;-66
2022/09/08 14:00:22;;;;;;;0.25;0.20;;;;;;;;;;4935775;28;20386;-66
2022/09/08 14:02:51;;;;;;;0.20;0.20;;;;;;;;;;5008574;28;20292;-66
2022/09/08 14:05:23;;;;;;;1.45;0.15;;;;;;;;;;5011279;28;20205;-66
2022/09/08 14:07:54;;;;;;;1.40;0.17;;;;;;;;;;5028743;28;20212;-66
2022/09/08 14:10:25;;;;;;;1.00;0.30;;;;;;;;;;5015663;28;20271;-67
2022/09/08 14:12:52;;;;;;;1.35;0.40;;;;;;;;;;5025652;28;20224;-67
2022/09/08 14:15:21;;;;;;;0.30;0.20;;;;;;;;;;5026488;28;20212;-65
2022/09/08 14:18:06;;;;;;;2.75;0.30;;;;;;;;;;5009809;28;20580;-65
2022/09/08 14:20:37;;;;;;;1.88;0.35;;;;;;;;;;5009812;28;20209;-66
2022/09/08 14:23:13;;;;;;;1.42;0.40;;;;;;;;;;5008791;28;20220;-65
2022/09/08 14:25:41;;;;;;;1.48;0.30;;;;;;;;;;5009036;28;20209;-66
2022/09/08 14:28:13;;;;;;;1.48;0.35;;;;;;;;;;5009037;28;20347;-66
2022/09/08 14:30:51;;;;;;;0.20;0.20;;;;;;;;;;5023296;28;20717;-66
2022/09/08 14:33:20;;;;;;;0.28;0.28;;;;;;;;;;5025616;28;20831;-65
2022/09/08 14:35:47;;;;;;;0.30;0.30;;;;;;;;;;5013664;28;20216;-66
2022/09/08 14:38:31;;;;;;;0.82;0.57;;;;;;;;;;5009051;28;20227;-67
2022/09/08 14:41:05;;;;;;;0.28;0.20;;;;;;;;;;5009279;28;20227;-66
2022/09/08 14:43:41;;;;;;;1.67;0.20;;;;;;;;;;5014736;28;20213;-66
2022/09/08 14:46:14;;;;;;;0.47;0.17;;;;;;;;;;5009847;28;20295;-66
2022/09/08 14:48:57;;;;;;;0.32;0.20;;;;;;;;;;5008895;28;20279;-66
2022/09/08 14:51:33;;;;;;;0.30;0.30;;;;;;;;;;5010598;28;20601;-67
2022/09/08 14:54:08;;;;;;;0.43;0.40;;;;;;;;;;5015613;28;20762;-67
2022/09/08 14:56:40;;;;;;;0.20;0.20;;;;;;;;;;5024310;28;20208;-66
2022/09/08 14:59:19;;;;;;;0.40;0.38;;;;;;;;;;5024144;28;20296;-67
2022/09/08 15:01:48;;;;;;;0.30;0.30;;;;;;;;;;5011083;28;20209;-67
2022/09/08 15:04:17;;;;;;;0.70;0.28;;;;;;;;;;5026549;28;20282;-66
2022/09/08 15:06:52;;;;;;;0.47;0.20;;;;;;;;;;5011790;28;20304;-63
2022/09/08 15:09:43;;;;;;;0.20;0.15;;;;;;;;;;5018185;28;20211;-65
2022/09/08 15:12:25;;;;;;;0.20;0.20;;;;;;;;;;5021800;28;20216;-63
2022/09/08 15:14:56;;;;;;;0.63;0.22;;;;;;;;;;4995913;28;20205;-65
2022/09/08 15:17:28;;;;;;;0.30;0.30;;;;;;;;;;5008124;28;20725;-62
2022/09/08 15:19:59;;;;;;;0.32;0.20;;;;;;;;;;5008428;28;20225;-64